Time;durP1;ratioP1;P1;durP2;ratioP2;P2;SDS_P1;SDS_P2;PMS_P1;PMS_P2;Temp;Humidity;BMP_temperature;BMP_pressure;BME280_temperature;BME280_humidity;BME280_pressure;Samples;Min_cycle;Max_cycle;Signal;HPM_P1;HPM_P2
2023/08/10 00:00:15;;;;;;;1999.90;999.90;;;22.70;99.90;;;;;;5036285;28;20396;-72
2023/08/10 00:02:42;;;;;;;1999.90;999.90;;;22.70;99.90;;;;;;5036297;28;20404;-72
2023/08/10 00:05:08;;;;;;;1999.90;999.90;;;22.80;99.90;;;;;;5036224;28;20459;-72
2023/08/10 00:07:36;;;;;;;1999.90;999.90;;;22.80;99.90;;;;;;5036465;28;20029;-77
2023/08/10 00:10:03;;;;;;;1999.90;999.90;;;22.80;99.90;;;;;;5018248;28;20096;-72
2023/08/10 00:12:29;;;;;;;1999.90;999.90;;;22.80;99.90;;;;;;5036486;28;20087;-72
2023/08/10 00:14:55;;;;;;;1999.90;999.90;;;22.80;99.90;;;;;;5035658;28;20037;-72
2023/08/10 00:17:20;;;;;;;1999.90;999.90;;;22.70;99.90;;;;;;5018557;28;20058;-71
2023/08/10 00:19:46;;;;;;;1999.90;999.90;;;22.70;99.90;;;;;;5017863;28;20511;-78
2023/08/10 00:22:14;;;;;;;1999.90;999.90;;;22.70;99.90;;;;;;5035257;28;20029;-72
2023/08/10 00:24:40;;;;;;;1999.90;999.90;;;22.70;99.90;;;;;;5035253;28;20378;-72
2023/08/10 00:27:06;;;;;;;1999.90;999.90;;;22.80;99.90;;;;;;5035278;28;20087;-72
2023/08/10 00:29:32;;;;;;;1999.90;999.90;;;22.80;99.90;;;;;;5035932;28;20506;-72
2023/08/10 00:31:58;;;;;;;1999.90;999.90;;;22.70;99.90;;;;;;5035804;28;20457;-72
2023/08/10 00:34:23;;;;;;;1999.90;999.90;;;22.60;99.90;;;;;;5033960;28;20036;-78
2023/08/10 00:36:49;;;;;;;1999.90;999.90;;;22.60;99.90;;;;;;5035162;28;20033;-78
2023/08/10 00:39:15;;;;;;;1999.90;999.90;;;22.50;99.90;;;;;;5035095;28;20483;-72
2023/08/10 00:41:41;;;;;;;1999.90;999.90;;;22.40;99.90;;;;;;5035729;28;20041;-72
2023/08/10 00:44:07;;;;;;;1999.90;999.90;;;22.30;99.90;;;;;;5035407;28;20048;-72
2023/08/10 00:46:32;;;;;;;1999.90;999.90;;;22.20;99.90;;;;;;5020188;28;20041;-72
2023/08/10 00:48:59;;;;;;;1999.90;999.90;;;22.20;99.90;;;;;;5016017;28;20022;-72
2023/08/10 00:51:24;;;;;;;1999.90;999.90;;;22.10;99.90;;;;;;5028452;28;20488;-72
2023/08/10 00:53:51;;;;;;;1999.90;999.90;;;22.10;99.90;;;;;;5034211;28;20026;-72
2023/08/10 00:56:17;;;;;;;1999.90;999.90;;;22.00;99.90;;;;;;5034888;28;20040;-72
2023/08/10 00:58:43;;;;;;;1999.90;999.90;;;22.10;99.90;;;;;;5034592;28;20034;-72
2023/08/10 01:01:08;;;;;;;1999.90;999.90;;;22.00;99.90;;;;;;5029889;28;20034;-77
2023/08/10 01:03:34;;;;;;;1999.90;999.90;;;22.00;99.90;;;;;;5015115;28;20026;-71
2023/08/10 01:06:10;;;;;;;1999.90;999.90;;;21.90;99.90;;;;;;5006765;28;20037;-72
2023/08/10 01:09:01;;;;;;;1999.90;999.90;;;21.90;99.90;;;;;;5034358;28;20041;-72
2023/08/10 01:11:29;;;;;;;1999.90;999.90;;;21.80;99.90;;;;;;5034905;28;20468;-72
2023/08/10 01:14:10;;;;;;;1999.90;999.90;;;21.70;99.90;;;;;;5034734;28;20053;-72
2023/08/10 01:16:39;;;;;;;1999.90;999.90;;;21.70;99.90;;;;;;5034811;28;20083;-72
2023/08/10 01:19:09;;;;;;;1999.90;999.90;;;21.60;99.90;;;;;;5034496;28;20033;-71
2023/08/10 01:21:49;;;;;;;1999.90;999.90;;;21.50;99.90;;;;;;5034571;28;20033;-72
2023/08/10 01:24:25;;;;;;;1999.90;999.90;;;21.40;99.90;;;;;;5031325;28;20120;-72
2023/08/10 01:26:53;;;;;;;1999.90;999.90;;;21.30;99.90;;;;;;5035022;28;20404;-77
2023/08/10 01:29:20;;;;;;;1999.90;999.90;;;21.20;99.90;;;;;;5034668;28;20017;-77
2023/08/10 01:31:46;;;;;;;1999.90;999.90;;;21.10;99.90;;;;;;5034836;28;20026;-71
2023/08/10 01:34:11;;;;;;;1999.90;999.90;;;21.10;99.90;;;;;;5017002;28;20032;-72
2023/08/10 01:36:37;;;;;;;1999.90;999.90;;;21.10;99.90;;;;;;5034606;28;20543;-71
2023/08/10 01:39:03;;;;;;;1999.90;999.90;;;21.10;99.90;;;;;;5034195;28;20381;-77
2023/08/10 01:41:28;;;;;;;1999.90;999.90;;;20.90;99.90;;;;;;5034191;28;20061;-72
2023/08/10 01:43:54;;;;;;;1999.90;999.90;;;20.90;99.90;;;;;;5016523;28;20152;-71
2023/08/10 01:46:22;;;;;;;1999.90;999.90;;;20.90;99.90;;;;;;5025299;28;20033;-71
2023/08/10 01:48:52;;;;;;;1999.90;999.90;;;20.90;99.90;;;;;;5016984;28;20022;-71
2023/08/10 01:51:22;;;;;;;1999.90;999.90;;;20.90;99.90;;;;;;5033815;28;20511;-72
2023/08/10 01:53:50;;;;;;;1999.90;999.90;;;20.90;99.90;;;;;;5033308;28;20029;-77
2023/08/10 01:56:17;;;;;;;1999.90;999.90;;;20.90;99.90;;;;;;5034242;28;20507;-71
2023/08/10 01:58:43;;;;;;;1999.90;999.90;;;20.80;99.90;;;;;;5034767;28;20022;-71
2023/08/10 02:01:09;;;;;;;1999.90;999.90;;;20.80;99.90;;;;;;5016406;28;20039;-72
2023/08/10 02:03:34;;;;;;;1999.90;999.90;;;20.80;99.90;;;;;;5034219;28;20133;-71
2023/08/10 02:06:00;;;;;;;1999.90;999.90;;;20.70;99.90;;;;;;5032944;28;20403;-77
2023/08/10 02:08:25;;;;;;;1999.90;999.90;;;20.70;99.90;;;;;;5033904;28;20013;-72
2023/08/10 02:10:51;;;;;;;1999.90;999.90;;;20.60;99.90;;;;;;5016094;28;20055;-72
2023/08/10 02:13:16;;;;;;;1999.90;999.90;;;20.50;99.90;;;;;;5034068;28;20025;-72
2023/08/10 02:15:42;;;;;;;1999.90;999.90;;;20.50;99.90;;;;;;5033870;28;20117;-72
2023/08/10 02:18:11;;;;;;;1999.90;999.90;;;20.40;99.90;;;;;;5033384;28;20022;-72
2023/08/10 02:20:36;;;;;;;1999.90;999.90;;;20.40;99.90;;;;;;5016089;28;20069;-77
2023/08/10 02:23:03;;;;;;;1999.90;999.90;;;20.40;99.90;;;;;;5015324;28;20075;-72
2023/08/10 02:25:29;;;;;;;1999.90;999.90;;;20.40;99.90;;;;;;5033455;28;20021;-72
2023/08/10 02:27:54;;;;;;;1999.90;999.90;;;20.40;99.90;;;;;;5033363;28;20109;-72
2023/08/10 02:30:20;;;;;;;1999.90;999.90;;;20.40;99.90;;;;;;5015347;28;20025;-72
2023/08/10 02:32:46;;;;;;;1999.90;999.90;;;20.40;99.90;;;;;;5026778;28;20136;-77
2023/08/10 02:35:12;;;;;;;1999.90;999.90;;;20.40;99.90;;;;;;5040000;28;20026;-71
2023/08/10 02:37:38;;;;;;;1999.90;999.90;;;20.40;99.90;;;;;;5033486;28;20040;-72
2023/08/10 02:40:04;;;;;;;1999.90;999.90;;;20.40;99.90;;;;;;5033415;28;20101;-72
2023/08/10 02:42:30;;;;;;;1999.90;999.90;;;20.50;99.90;;;;;;5033275;28;20021;-71
2023/08/10 02:44:56;;;;;;;1999.90;999.90;;;20.50;99.90;;;;;;5036232;28;20060;-71
2023/08/10 02:47:21;;;;;;;1999.90;999.90;;;20.50;99.90;;;;;;5020538;28;20021;-76
2023/08/10 02:49:47;;;;;;;1999.90;999.90;;;20.50;99.90;;;;;;5033781;28;20049;-72
2023/08/10 02:52:13;;;;;;;1999.90;999.90;;;20.50;99.90;;;;;;5033015;28;20396;-72
2023/08/10 02:54:38;;;;;;;1999.90;999.90;;;20.60;99.90;;;;;;5014689;28;20079;-71
2023/08/10 02:57:04;;;;;;;1999.90;999.90;;;20.70;99.90;;;;;;5033023;28;20427;-76
2023/08/10 02:59:30;;;;;;;1999.90;999.90;;;20.80;99.90;;;;;;5033530;28;20063;-73
2023/08/10 03:01:55;;;;;;;1999.90;999.90;;;20.80;99.90;;;;;;5032889;28;20045;-72
2023/08/10 03:04:21;;;;;;;1999.90;999.90;;;20.80;99.90;;;;;;5015513;28;20124;-72
2023/08/10 03:06:46;;;;;;;1999.90;999.90;;;20.90;99.90;;;;;;5015021;28;20536;-72
2023/08/10 03:09:13;;;;;;;1999.90;999.90;;;20.90;99.90;;;;;;5033083;28;20064;-72
2023/08/10 03:11:38;;;;;;;1999.90;999.90;;;20.80;99.90;;;;;;5032933;28;20049;-77
2023/08/10 03:14:04;;;;;;;1999.90;999.90;;;20.70;99.90;;;;;;5033285;28;20064;-76
2023/08/10 03:16:30;;;;;;;1999.90;999.90;;;20.60;99.90;;;;;;5014706;28;20057;-72
2023/08/10 03:18:56;;;;;;;1999.90;999.90;;;20.50;99.90;;;;;;5014435;28;20033;-72
2023/08/10 03:21:22;;;;;;;1999.90;999.90;;;20.40;99.90;;;;;;5013975;28;20021;-72
2023/08/10 03:23:48;;;;;;;1999.90;999.90;;;20.40;99.90;;;;;;5032282;28;20369;-76
2023/08/10 03:26:13;;;;;;;1999.90;999.90;;;20.40;99.90;;;;;;5033084;28;20423;-71
2023/08/10 03:28:39;;;;;;;1999.90;999.90;;;20.40;99.90;;;;;;5032789;28;20477;-71
2023/08/10 03:31:05;;;;;;;1999.90;999.90;;;20.40;99.90;;;;;;5032699;28;20022;-72
2023/08/10 03:33:30;;;;;;;1999.90;999.90;;;20.20;99.90;;;;;;5032557;28;20033;-71
2023/08/10 03:35:56;;;;;;;1999.90;999.90;;;20.10;99.90;;;;;;5014946;28;20033;-71
2023/08/10 03:38:22;;;;;;;1999.90;999.90;;;20.10;99.90;;;;;;5032584;28;20484;-76
2023/08/10 03:40:47;;;;;;;1999.90;999.90;;;20.10;99.90;;;;;;5032673;28;20040;-72
2023/08/10 03:43:13;;;;;;;1999.90;999.90;;;20.10;99.90;;;;;;5032601;28;20057;-71
2023/08/10 03:45:38;;;;;;;1999.90;999.90;;;20.10;99.90;;;;;;5041476;28;20388;-71
2023/08/10 03:48:04;;;;;;;1999.90;999.90;;;20.20;99.90;;;;;;5017458;28;20034;-71
2023/08/10 03:50:30;;;;;;;1999.90;999.90;;;20.20;99.90;;;;;;5014699;28;20056;-76
2023/08/10 03:52:56;;;;;;;1999.90;999.90;;;20.10;99.90;;;;;;5014236;28;20060;-72
2023/08/10 03:55:21;;;;;;;1999.90;999.90;;;20.10;99.90;;;;;;5032292;28;20018;-72
2023/08/10 03:57:48;;;;;;;1999.90;999.90;;;20.20;99.90;;;;;;5014611;28;20061;-71
2023/08/10 04:00:14;;;;;;;1999.90;999.90;;;20.20;99.90;;;;;;5032509;28;20400;-72
2023/08/10 04:02:39;;;;;;;1999.90;999.90;;;20.20;99.90;;;;;;5032632;28;20455;-75
2023/08/10 04:05:08;;;;;;;1999.90;999.90;;;20.40;99.90;;;;;;5032541;28;20060;-75
2023/08/10 04:07:33;;;;;;;1999.90;999.90;;;20.40;99.90;;;;;;5032300;28;20456;-71
2023/08/10 04:10:02;;;;;;;1999.90;999.90;;;20.40;99.90;;;;;;5031408;28;20093;-71
2023/08/10 04:12:28;;;;;;;1999.90;999.90;;;20.40;99.90;;;;;;5032646;28;20421;-71
2023/08/10 04:14:53;;;;;;;1999.90;999.90;;;20.40;99.90;;;;;;5032566;28;20049;-76
2023/08/10 04:17:19;;;;;;;1999.90;999.90;;;20.30;99.90;;;;;;5031859;28;20105;-74
2023/08/10 04:19:45;;;;;;;1999.90;999.90;;;20.20;99.90;;;;;;5032325;28;20056;-70
2023/08/10 04:22:10;;;;;;;1999.90;999.90;;;20.10;99.90;;;;;;5031734;28;20460;-70
2023/08/10 04:24:36;;;;;;;1999.90;999.90;;;20.00;99.90;;;;;;5031495;28;20488;-70
2023/08/10 04:27:02;;;;;;;1999.90;999.90;;;19.90;99.90;;;;;;5032376;28;20072;-70
2023/08/10 04:29:28;;;;;;;1999.90;999.90;;;19.80;99.90;;;;;;5034317;28;20508;-76
2023/08/10 04:31:54;;;;;;;1999.90;999.90;;;19.70;99.90;;;;;;5035980;28;20037;-70
2023/08/10 04:34:20;;;;;;;1999.90;999.90;;;19.60;99.90;;;;;;5017915;28;20018;-71
2023/08/10 04:36:46;;;;;;;1999.90;999.90;;;19.60;99.90;;;;;;5035685;28;20369;-71
2023/08/10 04:39:12;;;;;;;1999.90;999.90;;;19.60;99.90;;;;;;5035700;28;20068;-71
2023/08/10 04:41:38;;;;;;;1999.90;999.90;;;19.60;99.90;;;;;;5017692;28;20033;-77
2023/08/10 04:44:04;;;;;;;1999.90;999.90;;;19.70;99.90;;;;;;5035489;28;20060;-77
2023/08/10 04:46:29;;;;;;;1999.90;999.90;;;19.80;99.90;;;;;;5034664;28;20033;-71
2023/08/10 04:48:55;;;;;;;1999.90;999.90;;;19.80;99.90;;;;;;4997950;28;20479;-71
2023/08/10 04:51:21;;;;;;;1999.90;999.90;;;19.80;99.90;;;;;;4997974;28;20030;-71
2023/08/10 04:53:46;;;;;;;1999.90;999.90;;;19.80;99.90;;;;;;5034210;28;20380;-77
2023/08/10 04:56:12;;;;;;;1999.90;999.90;;;19.90;99.90;;;;;;5035350;28;20100;-77
2023/08/10 04:58:38;;;;;;;1999.90;999.90;;;19.90;99.90;;;;;;5017510;28;20040;-71
2023/08/10 05:01:03;;;;;;;1999.90;999.90;;;19.90;99.90;;;;;;5034942;28;20029;-71
2023/08/10 05:03:29;;;;;;;1999.90;999.90;;;19.90;99.90;;;;;;5017138;28;20026;-71
2023/08/10 05:05:55;;;;;;;1999.90;999.90;;;19.80;99.90;;;;;;5035431;28;20026;-71
2023/08/10 05:08:21;;;;;;;1999.90;999.90;;;19.80;99.90;;;;;;5035109;28;20180;-71
2023/08/10 05:10:47;;;;;;;1999.90;999.90;;;19.80;99.90;;;;;;5035014;28;20025;-71
2023/08/10 05:13:13;;;;;;;1999.90;999.90;;;19.80;99.90;;;;;;5034659;28;20032;-71
2023/08/10 05:15:39;;;;;;;1999.90;999.90;;;19.80;99.90;;;;;;5035207;28;20025;-71
2023/08/10 05:18:05;;;;;;;1999.90;999.90;;;19.80;99.90;;;;;;5016575;28;20032;-71
2023/08/10 05:20:31;;;;;;;1999.90;999.90;;;19.80;99.90;;;;;;5034035;28;20038;-76
2023/08/10 05:22:56;;;;;;;1999.90;999.90;;;19.80;99.90;;;;;;5034090;28;20373;-71
2023/08/10 05:25:22;;;;;;;1999.90;999.90;;;19.80;99.90;;;;;;5034238;28;20407;-71
2023/08/10 05:27:48;;;;;;;1999.90;999.90;;;19.80;99.90;;;;;;5035304;28;20105;-71
2023/08/10 05:30:13;;;;;;;1999.90;999.90;;;19.80;99.90;;;;;;5023488;28;20087;-71
2023/08/10 05:32:42;;;;;;;1999.90;999.90;;;19.90;99.90;;;;;;5034696;28;20024;-74
2023/08/10 05:35:08;;;;;;;1999.90;999.90;;;19.90;99.90;;;;;;5038917;28;20480;-75
2023/08/10 05:37:35;;;;;;;1999.90;999.90;;;19.90;99.90;;;;;;5037448;28;20018;-72
2023/08/10 05:40:01;;;;;;;1999.90;999.90;;;19.90;99.90;;;;;;5035982;28;20033;-71
2023/08/10 05:42:27;;;;;;;1999.90;999.90;;;19.90;99.90;;;;;;5032404;28;20021;-71
2023/08/10 05:44:53;;;;;;;1999.90;999.90;;;19.90;99.90;;;;;;5034127;28;20057;-71
2023/08/10 05:47:19;;;;;;;1999.90;999.90;;;19.80;99.90;;;;;;5029633;28;20100;-75
2023/08/10 05:49:44;;;;;;;1999.90;999.90;;;19.80;99.90;;;;;;5014029;28;20105;-71
2023/08/10 05:52:10;;;;;;;1999.90;999.90;;;19.90;99.90;;;;;;5017769;28;20032;-71
2023/08/10 05:54:36;;;;;;;1999.90;999.90;;;19.90;99.90;;;;;;5033764;28;20101;-71
2023/08/10 05:57:01;;;;;;;1999.90;999.90;;;19.90;99.90;;;;;;5033899;28;20052;-71
2023/08/10 05:59:27;;;;;;;1999.90;999.90;;;20.00;99.90;;;;;;5033460;28;20025;-71
2023/08/10 06:01:53;;;;;;;1999.90;999.90;;;20.00;99.90;;;;;;5033692;28;20025;-71
2023/08/10 06:04:19;;;;;;;1999.90;999.90;;;20.00;99.90;;;;;;5015866;28;20390;-71
2023/08/10 06:06:46;;;;;;;1999.90;999.90;;;20.10;99.90;;;;;;5033072;28;20079;-71
2023/08/10 06:09:12;;;;;;;1999.90;999.90;;;20.10;99.90;;;;;;5015296;28;20034;-71
2023/08/10 06:11:38;;;;;;;1999.90;999.90;;;20.10;99.90;;;;;;5015449;28;20028;-71
2023/08/10 06:14:04;;;;;;;1999.90;999.90;;;20.20;99.90;;;;;;5032589;28;20051;-75
2023/08/10 06:16:30;;;;;;;1999.90;999.90;;;20.30;99.90;;;;;;5013712;28;20025;-74
2023/08/10 06:18:55;;;;;;;1999.90;999.90;;;20.40;99.90;;;;;;5030261;28;20033;-72
2023/08/10 06:21:21;;;;;;;1999.90;999.90;;;20.50;99.90;;;;;;5035097;28;20029;-71
2023/08/10 06:23:46;;;;;;;1999.90;999.90;;;20.60;99.90;;;;;;5033792;28;20045;-71
2023/08/10 06:26:12;;;;;;;1999.90;999.90;;;20.70;99.90;;;;;;5031515;28;20029;-74
2023/08/10 06:28:39;;;;;;;1999.90;999.90;;;20.80;99.90;;;;;;5020484;28;20032;-71
2023/08/10 06:31:09;;;;;;;1999.90;999.90;;;20.90;99.90;;;;;;5031141;28;20056;-72
2023/08/10 06:33:38;;;;;;;1999.90;999.90;;;20.90;99.90;;;;;;5030085;28;20025;-71
2023/08/10 06:36:06;;;;;;;1999.90;999.90;;;21.00;99.90;;;;;;5013663;28;20109;-72
2023/08/10 06:38:34;;;;;;;1999.90;999.90;;;21.00;99.90;;;;;;5031025;28;20110;-71
2023/08/10 06:41:00;;;;;;;1999.90;999.90;;;21.10;99.90;;;;;;5028685;28;20467;-71
2023/08/10 06:43:26;;;;;;;1999.90;999.90;;;21.10;99.90;;;;;;5029669;28;20164;-71
2023/08/10 06:45:51;;;;;;;1999.90;999.90;;;21.10;99.90;;;;;;5015826;28;20037;-71
2023/08/10 06:48:17;;;;;;;1999.90;999.90;;;21.20;99.90;;;;;;5026919;28;20040;-72
2023/08/10 06:50:43;;;;;;;1999.90;999.90;;;21.20;99.90;;;;;;5013023;28;20488;-71
2023/08/10 06:53:09;;;;;;;1999.90;999.90;;;21.20;99.90;;;;;;5029315;28;20619;-71
2023/08/10 06:55:34;;;;;;;1999.90;999.90;;;21.10;99.90;;;;;;5028640;28;20108;-72
2023/08/10 06:58:02;;;;;;;1999.90;999.90;;;21.10;99.90;;;;;;5030690;28;20033;-71
2023/08/10 07:00:27;;;;;;;1999.90;999.90;;;21.10;99.90;;;;;;5030186;28;20128;-71
2023/08/10 07:02:56;;;;;;;1999.90;999.90;;;21.40;99.90;;;;;;5011629;28;20068;-71
2023/08/10 07:05:23;;;;;;;1999.90;999.90;;;21.60;99.90;;;;;;5026419;28;20056;-74
2023/08/10 07:07:49;;;;;;;1999.90;999.90;;;21.80;99.90;;;;;;5033698;28;20028;-72
2023/08/10 07:10:15;;;;;;;1999.90;999.90;;;22.10;99.90;;;;;;5030165;28;20032;-72
2023/08/10 07:12:42;;;;;;;1999.90;999.90;;;22.40;99.90;;;;;;5034139;28;20025;-71
2023/08/10 07:15:08;;;;;;;1999.90;999.90;;;22.70;99.90;;;;;;5031739;28;20025;-72
2023/08/10 07:17:34;;;;;;;1999.90;999.90;;;22.70;99.90;;;;;;5030583;28;20428;-72
2023/08/10 07:20:00;;;;;;;1999.90;999.90;;;22.70;99.90;;;;;;5030598;28;20100;-72
2023/08/10 07:22:25;;;;;;;1999.90;999.90;;;22.80;99.90;;;;;;5012176;28;20397;-72
2023/08/10 07:24:51;;;;;;;1999.90;999.90;;;23.00;99.90;;;;;;5010436;28;20045;-72
2023/08/10 07:27:17;;;;;;;1999.90;999.90;;;23.20;99.90;;;;;;5028115;28;20116;-72
2023/08/10 07:29:43;;;;;;;1999.90;999.90;;;23.40;99.90;;;;;;5032928;28;20387;-74
2023/08/10 07:32:09;;;;;;;1999.90;999.90;;;23.50;99.90;;;;;;5028075;28;20021;-72
2023/08/10 07:34:35;;;;;;;1999.90;999.90;;;23.50;99.90;;;;;;5028354;28;20021;-76
2023/08/10 07:37:00;;;;;;;1999.90;999.90;;;23.50;99.90;;;;;;5027338;28;20052;-73
2023/08/10 07:39:26;;;;;;;1999.90;999.90;;;23.50;99.90;;;;;;5025656;28;20045;-72
2023/08/10 07:41:52;;;;;;;1999.90;999.90;;;23.50;99.90;;;;;;5028582;28;20461;-73
2023/08/10 07:44:18;;;;;;;1999.90;999.90;;;23.60;99.90;;;;;;5010713;28;20535;-77
2023/08/10 07:46:46;;;;;;;1999.90;999.90;;;23.70;99.90;;;;;;5025553;28;20034;-73
2023/08/10 07:49:14;;;;;;;1999.90;999.90;;;23.80;99.90;;;;;;5025700;28;20025;-73
2023/08/10 07:51:41;;;;;;;1999.90;999.90;;;24.20;99.90;;;;;;5028706;28;20022;-73
2023/08/10 07:54:08;;;;;;;1999.90;999.90;;;24.40;99.90;;;;;;5008507;28;20078;-73
2023/08/10 07:56:34;;;;;;;1999.90;999.90;;;24.60;99.90;;;;;;5008452;28;20064;-77
2023/08/10 07:59:00;;;;;;;1999.90;999.90;;;24.80;99.90;;;;;;5025416;28;20535;-73
2023/08/10 08:01:26;;;;;;;1999.90;999.90;;;24.60;99.90;;;;;;5027504;28;20100;-73
2023/08/10 08:03:51;;;;;;;1999.90;999.90;;;24.60;99.90;;;;;;5029719;28;20045;-73
2023/08/10 08:06:17;;;;;;;1999.90;999.90;;;24.80;99.90;;;;;;5033628;28;20381;-72
2023/08/10 08:08:42;;;;;;;1999.90;999.90;;;24.80;99.90;;;;;;5027717;28;20030;-73
2023/08/10 08:11:08;;;;;;;1999.90;999.90;;;26.40;99.90;;;;;;5029676;28;20441;-78
2023/08/10 08:13:34;;;;;;;1999.90;999.90;;;27.50;99.90;;;;;;5014719;28;20041;-73
2023/08/10 08:15:59;;;;;;;1999.90;999.90;;;27.50;99.90;;;;;;5014972;28;20136;-73
2023/08/10 08:18:44;;;;;;;1999.90;999.90;;;27.00;99.90;;;;;;5032514;28;20033;-73
2023/08/10 08:21:13;;;;;;;1999.90;999.90;;;26.60;99.90;;;;;;5015511;28;20037;-73
2023/08/10 08:23:39;;;;;;;1999.90;999.90;;;27.60;99.90;;;;;;5035698;28;20033;-77
2023/08/10 08:26:04;;;;;;;1999.90;999.90;;;28.90;99.90;;;;;;5031029;28;20446;-73
2023/08/10 08:28:30;;;;;;;1999.90;999.90;;;29.50;99.90;;;;;;5029292;28;20030;-73
2023/08/10 08:30:56;;;;;;;1999.90;999.90;;;28.20;99.90;;;;;;5032625;28;20026;-73
2023/08/10 08:33:21;;;;;;;1999.90;999.90;;;28.20;99.90;;;;;;5038291;28;20029;-73
2023/08/10 08:35:47;;;;;;;1999.90;999.90;;;28.80;99.90;;;;;;5033900;28;20021;-73
2023/08/10 08:38:14;;;;;;;1999.90;999.90;;;28.90;99.90;;;;;;5016724;28;20048;-73
2023/08/10 08:40:41;;;;;;;1999.90;999.90;;;28.70;99.90;;;;;;5015348;28;20033;-73
2023/08/10 08:43:07;;;;;;;1999.90;999.90;;;27.70;99.90;;;;;;5013205;28;20523;-73
2023/08/10 08:45:33;;;;;;;1999.90;999.90;;;27.30;99.90;;;;;;5014233;28;20029;-73
2023/08/10 08:47:59;;;;;;;1999.90;999.90;;;27.30;99.90;;;;;;5016335;28;20033;-72
2023/08/10 08:50:26;;;;;;;1999.90;999.90;;;27.50;99.90;;;;;;5029109;28;20404;-73
2023/08/10 08:52:53;;;;;;;1999.90;999.90;;;28.50;99.90;;;;;;5028595;28;20519;-73
2023/08/10 08:55:19;;;;;;;1999.90;999.90;;;30.30;99.90;;;;;;5031798;28;20063;-73
2023/08/10 08:57:46;;;;;;;1999.90;999.90;;;31.60;99.90;;;;;;5029006;28;20080;-73
2023/08/10 09:00:12;;;;;;;1999.90;999.90;;;32.90;99.90;;;;;;5032597;28;20025;-73
2023/08/10 09:02:38;;;;;;;1999.90;999.90;;;34.60;99.90;;;;;;5032550;28;20052;-78
2023/08/10 09:05:04;;;;;;;1999.90;999.90;;;35.80;99.90;;;;;;5030395;28;20468;-73
2023/08/10 09:07:30;;;;;;;1999.90;999.90;;;36.10;99.90;;;;;;5026761;28;20041;-74
2023/08/10 09:09:56;;;;;;;1999.90;999.90;;;36.10;99.90;;;;;;5028836;28;20017;-74
2023/08/10 09:12:35;;;;;;;1999.90;999.90;;;37.00;99.90;;;;;;5031273;28;20041;-73
2023/08/10 09:15:09;;;;;;;1999.90;999.90;;;37.20;99.90;;;;;;5021980;28;20026;-79
2023/08/10 09:17:38;;;;;;;1999.90;999.90;;;33.10;99.90;;;;;;5031247;28;20476;-80
2023/08/10 09:20:08;;;;;;;1999.90;999.90;;;30.70;99.90;;;;;;5026663;28;20029;-73
2023/08/10 09:22:36;;;;;;;1999.90;999.90;;;28.70;99.90;;;;;;5023434;28;20065;-72
2023/08/10 09:25:04;;;;;;;1999.90;999.90;;;27.40;99.90;;;;;;5007551;28;20057;-73
2023/08/10 09:27:30;;;;;;;1999.90;999.90;;;29.30;99.90;;;;;;5029510;28;20029;-72
2023/08/10 09:29:57;;;;;;;1999.90;999.90;;;29.40;99.90;;;;;;5030114;28;20056;-79
2023/08/10 09:32:23;;;;;;;1999.90;999.90;;;32.60;99.90;;;;;;5019616;28;20375;-73
2023/08/10 09:34:49;;;;;;;1999.90;999.90;;;34.90;99.90;;;;;;5026780;28;20439;-73
2023/08/10 09:37:15;;;;;;;1999.90;999.90;;;35.50;99.90;;;;;;5013762;28;20132;-73
2023/08/10 09:39:41;;;;;;;1999.90;999.90;;;35.20;99.90;;;;;;5025417;28;20022;-79
2023/08/10 09:42:07;;;;;;;1999.90;999.90;;;34.90;99.90;;;;;;5030776;28;20041;-73
2023/08/10 09:44:49;;;;;;;1999.90;999.90;;;35.10;99.90;;;;;;5031053;28;20120;-73
2023/08/10 09:47:16;;;;;;;1999.90;999.90;;;33.10;99.90;;;;;;5029683;28;20591;-73
2023/08/10 09:49:56;;;;;;;1999.90;999.90;;;32.80;99.90;;;;;;5025771;28;20064;-74
2023/08/10 09:52:26;;;;;;;1999.90;999.90;;;34.90;99.90;;;;;;5026109;28;20396;-73
2023/08/10 09:54:54;;;;;;;1999.90;999.90;;;35.80;99.90;;;;;;5030963;28;20040;-80
2023/08/10 09:57:21;;;;;;;1999.90;999.90;;;35.70;99.90;;;;;;5034814;28;20537;-79
2023/08/10 09:59:47;;;;;;;1999.90;999.90;;;36.50;99.70;;;;;;5032773;28;20104;-73
2023/08/10 10:02:14;;;;;;;1999.90;999.90;;;36.80;98.70;;;;;;5028583;28;20029;-73
2023/08/10 10:04:45;;;;;;;1999.90;999.90;;;36.20;99.60;;;;;;5029970;28;20026;-73
2023/08/10 10:07:11;;;;;;;1999.90;999.90;;;36.70;98.30;;;;;;5032991;28;20540;-74
2023/08/10 10:09:43;;;;;;;1999.90;999.90;;;36.50;98.80;;;;;;5027969;28;20071;-73
2023/08/10 10:12:13;;;;;;;1999.90;999.90;;;36.20;99.40;;;;;;5029866;28;20439;-73
2023/08/10 10:14:40;;;;;;;1999.90;999.90;;;35.80;99.90;;;;;;5030978;28;20496;-73
2023/08/10 10:17:06;;;;;;;1999.90;999.90;;;35.10;99.90;;;;;;5030097;28;20029;-73
2023/08/10 10:19:33;;;;;;;1999.90;999.90;;;34.20;99.90;;;;;;5007586;28;20033;-74
2023/08/10 10:22:00;;;;;;;1999.90;999.90;;;34.40;99.90;;;;;;5028002;28;20500;-80
2023/08/10 10:24:32;;;;;;;1999.90;999.90;;;34.30;99.90;;;;;;5030491;28;20442;-74
2023/08/10 10:27:08;;;;;;;1999.90;999.90;;;34.20;99.90;;;;;;5021054;28;20029;-73
2023/08/10 10:29:40;;;;;;;1999.90;999.90;;;34.20;99.90;;;;;;5029694;28;20026;-74
2023/08/10 10:32:11;;;;;;;1999.90;999.90;;;33.60;99.90;;;;;;5029532;28;20107;-80
2023/08/10 10:34:37;;;;;;;1999.90;999.90;;;33.20;99.90;;;;;;5029804;28;20026;-79
2023/08/10 10:37:07;;;;;;;1999.90;999.90;;;32.80;99.90;;;;;;5010447;28;20057;-73
2023/08/10 10:39:33;;;;;;;1999.90;999.90;;;32.30;99.90;;;;;;5029793;28;20030;-73
2023/08/10 10:41:58;;;;;;;1999.90;999.90;;;32.30;99.90;;;;;;5011889;28;20041;-73
2023/08/10 10:44:57;;;;;;;1999.90;999.90;;;32.90;99.90;;;;;;5030845;28;20130;-73
2023/08/10 10:47:50;;;;;;;1999.90;999.90;;;32.30;99.90;;;;;;5003602;28;20057;-73
2023/08/10 10:50:19;;;;;;;1999.90;999.90;;;32.30;99.90;;;;;;5007910;28;20029;-74
2023/08/10 10:52:53;;;;;;;1999.90;999.90;;;32.20;99.90;;;;;;5011160;28;20030;-74
2023/08/10 10:55:19;;;;;;;1999.90;999.90;;;31.70;99.90;;;;;;5027893;28;20048;-73
2023/08/10 10:57:48;;;;;;;1999.90;999.90;;;31.80;99.90;;;;;;5011312;28;20076;-73
2023/08/10 11:00:14;;;;;;;1999.90;999.90;;;32.00;99.90;;;;;;5027942;28;20404;-79
2023/08/10 11:02:40;;;;;;;1999.90;999.90;;;31.60;99.90;;;;;;5024311;28;20068;-73
2023/08/10 11:05:17;;;;;;;1999.90;999.90;;;30.90;99.90;;;;;;5034605;28;20108;-74
2023/08/10 11:07:47;;;;;;;1999.90;999.90;;;30.60;99.90;;;;;;5028427;28;20033;-73
2023/08/10 11:10:14;;;;;;;1999.90;999.90;;;31.20;99.90;;;;;;5009472;28;20088;-72
2023/08/10 11:12:42;;;;;;;1999.90;999.90;;;30.20;99.90;;;;;;5024329;28;20266;-78
2023/08/10 11:15:10;;;;;;;1999.90;999.90;;;30.30;99.90;;;;;;5025151;28;20021;-73
2023/08/10 11:17:37;;;;;;;1999.90;999.90;;;30.20;99.90;;;;;;5030105;28;20033;-72
2023/08/10 11:20:14;;;;;;;1999.90;999.90;;;30.50;99.90;;;;;;5028373;28;20029;-73
2023/08/10 11:22:40;;;;;;;1999.90;999.90;;;30.80;99.90;;;;;;5012109;28;20116;-73
2023/08/10 11:25:20;;;;;;;1999.90;999.90;;;30.60;99.90;;;;;;5012327;28;20033;-80
2023/08/10 11:27:48;;;;;;;1999.90;999.90;;;30.70;99.90;;;;;;5034975;28;20030;-72
2023/08/10 11:30:16;;;;;;;1999.90;999.90;;;31.50;99.90;;;;;;5034225;28;20396;-73
2023/08/10 11:32:44;;;;;;;1999.90;999.90;;;31.20;99.90;;;;;;5029732;28;20484;-73
2023/08/10 11:35:12;;;;;;;1999.90;999.90;;;30.90;99.90;;;;;;5026792;28;20493;-73
2023/08/10 11:37:39;;;;;;;1999.90;999.90;;;30.60;99.90;;;;;;5025846;28;20070;-73
2023/08/10 11:40:20;;;;;;;1999.90;999.90;;;30.40;99.90;;;;;;5016272;28;20124;-80
2023/08/10 11:42:48;;;;;;;1999.90;999.90;;;30.90;99.90;;;;;;5031343;28;20075;-73
2023/08/10 11:45:23;;;;;;;1999.90;999.90;;;31.00;99.90;;;;;;5032194;28;20037;-73
2023/08/10 11:47:52;;;;;;;1999.90;999.90;;;30.70;99.90;;;;;;5018521;28;20120;-72
2023/08/10 11:50:19;;;;;;;1999.90;999.90;;;30.10;99.90;;;;;;5022813;28;20036;-79
2023/08/10 11:52:45;;;;;;;1999.90;999.90;;;29.40;99.90;;;;;;5015279;28;20060;-73
2023/08/10 11:55:12;;;;;;;1999.90;999.90;;;29.20;99.90;;;;;;5015541;28;20084;-73
2023/08/10 11:57:42;;;;;;;1999.90;999.90;;;29.20;99.90;;;;;;5032792;28;20025;-73